sensor_id;sensor_type;location;lat;lon;timestamp;P1;durP1;ratioP1;P2;durP2;ratioP2
10335;SDS011;5213;53.548;9.930;2023-11-19T00:00:40;9.82;;;7.22;;
10335;SDS011;5213;53.548;9.930;2023-11-19T00:03:05;7.93;;;7.13;;
10335;SDS011;5213;53.548;9.930;2023-11-19T00:05:31;8.23;;;7.35;;
10335;SDS011;5213;53.548;9.930;2023-11-19T00:07:57;8.82;;;7.07;;
10335;SDS011;5213;53.548;9.930;2023-11-19T00:10:22;7.80;;;7.00;;
10335;SDS011;5213;53.548;9.930;2023-11-19T00:12:48;9.45;;;6.82;;
10335;SDS011;5213;53.548;9.930;2023-11-19T00:15:15;10.02;;;7.03;;
10335;SDS011;5213;53.548;9.930;2023-11-19T00:17:44;7.93;;;7.10;;
10335;SDS011;5213;53.548;9.930;2023-11-19T00:20:11;7.45;;;6.47;;
10335;SDS011;5213;53.548;9.930;2023-11-19T00:22:37;6.97;;;6.07;;
10335;SDS011;5213;53.548;9.930;2023-11-19T00:25:03;9.95;;;6.28;;
10335;SDS011;5213;53.548;9.930;2023-11-19T00:27:30;6.00;;;5.40;;
10335;SDS011;5213;53.548;9.930;2023-11-19T00:29:56;6.53;;;5.90;;
10335;SDS011;5213;53.548;9.930;2023-11-19T00:32:21;5.30;;;4.80;;
10335;SDS011;5213;53.548;9.930;2023-11-19T00:34:47;6.18;;;5.28;;
10335;SDS011;5213;53.548;9.930;2023-11-19T00:37:13;6.18;;;5.43;;
10335;SDS011;5213;53.548;9.930;2023-11-19T00:39:40;6.68;;;5.97;;
10335;SDS011;5213;53.548;9.930;2023-11-19T00:42:09;5.30;;;4.80;;
10335;SDS011;5213;53.548;9.930;2023-11-19T00:44:38;5.40;;;4.88;;
10335;SDS011;5213;53.548;9.930;2023-11-19T00:47:04;6.38;;;5.60;;
10335;SDS011;5213;53.548;9.930;2023-11-19T00:49:30;5.65;;;5.10;;
10335;SDS011;5213;53.548;9.930;2023-11-19T00:52:00;5.80;;;5.20;;
10335;SDS011;5213;53.548;9.930;2023-11-19T00:54:27;5.72;;;5.22;;
10335;SDS011;5213;53.548;9.930;2023-11-19T00:56:52;6.18;;;5.25;;
10335;SDS011;5213;53.548;9.930;2023-11-19T00:59:18;5.30;;;4.78;;
10335;SDS011;5213;53.548;9.930;2023-11-19T01:01:47;5.18;;;4.68;;
10335;SDS011;5213;53.548;9.930;2023-11-19T01:04:18;5.05;;;4.55;;
10335;SDS011;5213;53.548;9.930;2023-11-19T01:06:44;4.40;;;4.00;;
10335;SDS011;5213;53.548;9.930;2023-11-19T01:09:10;4.30;;;3.90;;
10335;SDS011;5213;53.548;9.930;2023-11-19T01:11:35;4.28;;;3.90;;
10335;SDS011;5213;53.548;9.930;2023-11-19T01:14:01;4.10;;;3.80;;
10335;SDS011;5213;53.548;9.930;2023-11-19T01:16:27;5.75;;;4.10;;
10335;SDS011;5213;53.548;9.930;2023-11-19T01:18:52;3.63;;;3.33;;
10335;SDS011;5213;53.548;9.930;2023-11-19T01:21:18;3.85;;;3.55;;
10335;SDS011;5213;53.548;9.930;2023-11-19T01:23:44;3.63;;;3.33;;
10335;SDS011;5213;53.548;9.930;2023-11-19T01:26:10;3.33;;;3.03;;
10335;SDS011;5213;53.548;9.930;2023-11-19T01:28:37;3.05;;;2.83;;
10335;SDS011;5213;53.548;9.930;2023-11-19T01:31:05;3.17;;;2.88;;
10335;SDS011;5213;53.548;9.930;2023-11-19T01:33:35;3.42;;;3.17;;
10335;SDS011;5213;53.548;9.930;2023-11-19T01:36:01;3.20;;;3.00;;
10335;SDS011;5213;53.548;9.930;2023-11-19T01:38:27;3.20;;;3.00;;
10335;SDS011;5213;53.548;9.930;2023-11-19T01:40:56;2.70;;;2.53;;
10335;SDS011;5213;53.548;9.930;2023-11-19T01:43:35;3.00;;;2.80;;
10335;SDS011;5213;53.548;9.930;2023-11-19T01:46:06;2.88;;;2.67;;
10335;SDS011;5213;53.548;9.930;2023-11-19T01:48:35;2.25;;;2.15;;
10335;SDS011;5213;53.548;9.930;2023-11-19T01:51:04;2.17;;;2.08;;
10335;SDS011;5213;53.548;9.930;2023-11-19T01:53:31;2.30;;;2.20;;
10335;SDS011;5213;53.548;9.930;2023-11-19T01:55:58;2.30;;;2.20;;
10335;SDS011;5213;53.548;9.930;2023-11-19T01:58:25;2.10;;;2.00;;
10335;SDS011;5213;53.548;9.930;2023-11-19T02:00:51;2.10;;;2.00;;
10335;SDS011;5213;53.548;9.930;2023-11-19T02:03:16;1.80;;;1.70;;
10335;SDS011;5213;53.548;9.930;2023-11-19T02:05:42;1.83;;;1.73;;
10335;SDS011;5213;53.548;9.930;2023-11-19T02:08:08;1.95;;;1.85;;
10335;SDS011;5213;53.548;9.930;2023-11-19T02:10:34;1.98;;;1.88;;
10335;SDS011;5213;53.548;9.930;2023-11-19T02:13:00;1.80;;;1.70;;
10335;SDS011;5213;53.548;9.930;2023-11-19T02:15:26;2.30;;;2.10;;
10335;SDS011;5213;53.548;9.930;2023-11-19T02:17:52;1.90;;;1.80;;
10335;SDS011;5213;53.548;9.930;2023-11-19T02:20:17;1.90;;;1.80;;
10335;SDS011;5213;53.548;9.930;2023-11-19T02:22:45;1.63;;;1.52;;
10335;SDS011;5213;53.548;9.930;2023-11-19T02:25:25;1.80;;;1.70;;
10335;SDS011;5213;53.548;9.930;2023-11-19T02:28:00;1.77;;;1.67;;
10335;SDS011;5213;53.548;9.930;2023-11-19T02:30:27;1.60;;;1.50;;
10335;SDS011;5213;53.548;9.930;2023-11-19T02:32:54;1.67;;;1.60;;
10335;SDS011;5213;53.548;9.930;2023-11-19T02:35:22;1.65;;;1.55;;
10335;SDS011;5213;53.548;9.930;2023-11-19T02:37:48;1.80;;;1.70;;
10335;SDS011;5213;53.548;9.930;2023-11-19T02:40:14;1.98;;;1.88;;
10335;SDS011;5213;53.548;9.930;2023-11-19T02:42:39;1.90;;;1.80;;
10335;SDS011;5213;53.548;9.930;2023-11-19T02:45:05;1.83;;;1.73;;
10335;SDS011;5213;53.548;9.930;2023-11-19T02:47:32;1.85;;;1.75;;
10335;SDS011;5213;53.548;9.930;2023-11-19T02:49:58;2.25;;;2.15;;
10335;SDS011;5213;53.548;9.930;2023-11-19T02:52:24;1.77;;;1.67;;
10335;SDS011;5213;53.548;9.930;2023-11-19T02:54:50;2.15;;;1.80;;
10335;SDS011;5213;53.548;9.930;2023-11-19T02:57:16;2.05;;;1.92;;
10335;SDS011;5213;53.548;9.930;2023-11-19T02:59:44;2.10;;;2.00;;
10335;SDS011;5213;53.548;9.930;2023-11-19T03:02:10;2.20;;;2.10;;
10335;SDS011;5213;53.548;9.930;2023-11-19T03:04:36;2.20;;;2.10;;
10335;SDS011;5213;53.548;9.930;2023-11-19T03:07:07;2.10;;;2.00;;
10335;SDS011;5213;53.548;9.930;2023-11-19T03:09:33;2.20;;;2.00;;
10335;SDS011;5213;53.548;9.930;2023-11-19T03:12:00;2.05;;;1.95;;
10335;SDS011;5213;53.548;9.930;2023-11-19T03:14:26;2.00;;;1.90;;
10335;SDS011;5213;53.548;9.930;2023-11-19T03:16:52;2.00;;;1.90;;
10335;SDS011;5213;53.548;9.930;2023-11-19T03:19:18;1.88;;;1.77;;
10335;SDS011;5213;53.548;9.930;2023-11-19T03:21:44;2.28;;;2.17;;
10335;SDS011;5213;53.548;9.930;2023-11-19T03:24:09;2.20;;;2.10;;
10335;SDS011;5213;53.548;9.930;2023-11-19T03:26:37;2.20;;;2.10;;
10335;SDS011;5213;53.548;9.930;2023-11-19T03:29:03;2.47;;;2.30;;
10335;SDS011;5213;53.548;9.930;2023-11-19T03:31:29;2.13;;;2.03;;
10335;SDS011;5213;53.548;9.930;2023-11-19T03:33:54;3.10;;;2.90;;
10335;SDS011;5213;53.548;9.930;2023-11-19T03:36:20;2.42;;;2.33;;
10335;SDS011;5213;53.548;9.930;2023-11-19T03:38:45;2.28;;;2.08;;
10335;SDS011;5213;53.548;9.930;2023-11-19T03:41:12;3.47;;;2.35;;
10335;SDS011;5213;53.548;9.930;2023-11-19T03:43:38;2.90;;;2.70;;
10335;SDS011;5213;53.548;9.930;2023-11-19T03:46:05;2.50;;;2.40;;
10335;SDS011;5213;53.548;9.930;2023-11-19T03:48:40;2.42;;;2.33;;
10335;SDS011;5213;53.548;9.930;2023-11-19T03:51:06;3.03;;;2.83;;
10335;SDS011;5213;53.548;9.930;2023-11-19T03:53:32;2.95;;;2.75;;
10335;SDS011;5213;53.548;9.930;2023-11-19T03:55:57;2.90;;;2.72;;
10335;SDS011;5213;53.548;9.930;2023-11-19T03:58:23;3.50;;;3.15;;
10335;SDS011;5213;53.548;9.930;2023-11-19T04:00:49;3.33;;;3.13;;
10335;SDS011;5213;53.548;9.930;2023-11-19T04:03:14;3.47;;;2.97;;
10335;SDS011;5213;53.548;9.930;2023-11-19T04:05:40;2.67;;;2.53;;
10335;SDS011;5213;53.548;9.930;2023-11-19T04:08:06;3.28;;;3.08;;
10335;SDS011;5213;53.548;9.930;2023-11-19T04:10:31;3.40;;;3.10;;
10335;SDS011;5213;53.548;9.930;2023-11-19T04:12:57;3.35;;;3.15;;
10335;SDS011;5213;53.548;9.930;2023-11-19T04:15:22;3.53;;;3.22;;
10335;SDS011;5213;53.548;9.930;2023-11-19T04:17:49;3.30;;;3.10;;
10335;SDS011;5213;53.548;9.930;2023-11-19T04:20:14;3.47;;;3.17;;
10335;SDS011;5213;53.548;9.930;2023-11-19T04:22:40;2.88;;;2.78;;
10335;SDS011;5213;53.548;9.930;2023-11-19T04:25:06;2.97;;;2.78;;
10335;SDS011;5213;53.548;9.930;2023-11-19T04:27:32;3.25;;;3.05;;
10335;SDS011;5213;53.548;9.930;2023-11-19T04:29:58;3.38;;;3.08;;
10335;SDS011;5213;53.548;9.930;2023-11-19T04:32:25;3.40;;;3.20;;
10335;SDS011;5213;53.548;9.930;2023-11-19T04:34:51;3.72;;;3.42;;
10335;SDS011;5213;53.548;9.930;2023-11-19T04:37:17;3.53;;;3.33;;
10335;SDS011;5213;53.548;9.930;2023-11-19T04:39:44;4.25;;;3.50;;
10335;SDS011;5213;53.548;9.930;2023-11-19T04:42:11;4.50;;;4.13;;
10335;SDS011;5213;53.548;9.930;2023-11-19T04:44:37;3.88;;;3.58;;
10335;SDS011;5213;53.548;9.930;2023-11-19T04:47:03;4.68;;;4.13;;
10335;SDS011;5213;53.548;9.930;2023-11-19T04:49:28;4.57;;;4.13;;
10335;SDS011;5213;53.548;9.930;2023-11-19T04:51:55;4.45;;;4.05;;
10335;SDS011;5213;53.548;9.930;2023-11-19T04:54:21;4.35;;;3.95;;
10335;SDS011;5213;53.548;9.930;2023-11-19T04:56:46;4.80;;;4.40;;
10335;SDS011;5213;53.548;9.930;2023-11-19T04:59:12;5.22;;;4.72;;
10335;SDS011;5213;53.548;9.930;2023-11-19T05:01:38;5.55;;;5.05;;
10335;SDS011;5213;53.548;9.930;2023-11-19T05:04:03;5.82;;;4.97;;
10335;SDS011;5213;53.548;9.930;2023-11-19T05:06:29;6.60;;;6.00;;
10335;SDS011;5213;53.548;9.930;2023-11-19T05:08:56;8.32;;;6.70;;
10335;SDS011;5213;53.548;9.930;2023-11-19T05:11:29;8.60;;;7.35;;
10335;SDS011;5213;53.548;9.930;2023-11-19T05:13:55;8.18;;;6.88;;
10335;SDS011;5213;53.548;9.930;2023-11-19T05:16:21;9.70;;;8.38;;
10335;SDS011;5213;53.548;9.930;2023-11-19T05:18:46;11.13;;;8.75;;
10335;SDS011;5213;53.548;9.930;2023-11-19T05:21:12;14.40;;;11.40;;
10335;SDS011;5213;53.548;9.930;2023-11-19T05:23:38;15.07;;;11.48;;
10335;SDS011;5213;53.548;9.930;2023-11-19T05:26:04;17.30;;;11.43;;
10335;SDS011;5213;53.548;9.930;2023-11-19T05:28:30;21.67;;;12.88;;
10335;SDS011;5213;53.548;9.930;2023-11-19T05:30:55;19.60;;;13.80;;
10335;SDS011;5213;53.548;9.930;2023-11-19T05:33:21;21.63;;;14.77;;
10335;SDS011;5213;53.548;9.930;2023-11-19T05:35:47;20.65;;;14.43;;
10335;SDS011;5213;53.548;9.930;2023-11-19T05:38:12;25.67;;;15.02;;
10335;SDS011;5213;53.548;9.930;2023-11-19T05:40:39;23.40;;;15.88;;
10335;SDS011;5213;53.548;9.930;2023-11-19T05:43:05;27.63;;;15.68;;
10335;SDS011;5213;53.548;9.930;2023-11-19T05:45:31;24.90;;;15.75;;
10335;SDS011;5213;53.548;9.930;2023-11-19T05:47:57;30.50;;;16.55;;
10335;SDS011;5213;53.548;9.930;2023-11-19T05:50:23;24.83;;;16.10;;
10335;SDS011;5213;53.548;9.930;2023-11-19T05:52:49;31.52;;;16.08;;
10335;SDS011;5213;53.548;9.930;2023-11-19T05:55:14;27.45;;;15.30;;
10335;SDS011;5213;53.548;9.930;2023-11-19T05:57:40;29.67;;;15.82;;
10335;SDS011;5213;53.548;9.930;2023-11-19T06:00:06;21.98;;;15.93;;
10335;SDS011;5213;53.548;9.930;2023-11-19T06:02:33;32.10;;;15.75;;
10335;SDS011;5213;53.548;9.930;2023-11-19T06:04:59;29.80;;;16.23;;
10335;SDS011;5213;53.548;9.930;2023-11-19T06:07:26;26.10;;;16.08;;
10335;SDS011;5213;53.548;9.930;2023-11-19T06:09:51;30.13;;;15.90;;
10335;SDS011;5213;53.548;9.930;2023-11-19T06:12:17;32.65;;;15.95;;
10335;SDS011;5213;53.548;9.930;2023-11-19T06:14:43;27.88;;;15.75;;
10335;SDS011;5213;53.548;9.930;2023-11-19T06:17:08;25.92;;;15.00;;
10335;SDS011;5213;53.548;9.930;2023-11-19T06:19:36;32.72;;;14.10;;
10335;SDS011;5213;53.548;9.930;2023-11-19T06:22:02;31.40;;;14.00;;
10335;SDS011;5213;53.548;9.930;2023-11-19T06:24:28;26.70;;;13.35;;
10335;SDS011;5213;53.548;9.930;2023-11-19T06:26:54;29.55;;;14.10;;
10335;SDS011;5213;53.548;9.930;2023-11-19T06:29:19;24.25;;;13.10;;
10335;SDS011;5213;53.548;9.930;2023-11-19T06:31:45;28.38;;;12.63;;
10335;SDS011;5213;53.548;9.930;2023-11-19T06:34:13;27.50;;;12.27;;
10335;SDS011;5213;53.548;9.930;2023-11-19T06:36:39;24.35;;;11.35;;
10335;SDS011;5213;53.548;9.930;2023-11-19T06:39:05;19.73;;;11.65;;
10335;SDS011;5213;53.548;9.930;2023-11-19T06:41:31;29.17;;;11.93;;
10335;SDS011;5213;53.548;9.930;2023-11-19T06:43:57;30.42;;;10.88;;
10335;SDS011;5213;53.548;9.930;2023-11-19T06:46:22;24.42;;;11.90;;
10335;SDS011;5213;53.548;9.930;2023-11-19T06:48:48;24.70;;;11.48;;
10335;SDS011;5213;53.548;9.930;2023-11-19T06:51:13;27.42;;;10.82;;
10335;SDS011;5213;53.548;9.930;2023-11-19T06:53:39;27.63;;;10.85;;
10335;SDS011;5213;53.548;9.930;2023-11-19T06:56:06;19.75;;;9.60;;
10335;SDS011;5213;53.548;9.930;2023-11-19T06:58:42;25.58;;;10.65;;
10335;SDS011;5213;53.548;9.930;2023-11-19T07:01:07;23.00;;;9.45;;
10335;SDS011;5213;53.548;9.930;2023-11-19T07:03:34;20.85;;;9.13;;
10335;SDS011;5213;53.548;9.930;2023-11-19T07:06:00;22.23;;;8.55;;
10335;SDS011;5213;53.548;9.930;2023-11-19T07:08:26;17.85;;;8.30;;
10335;SDS011;5213;53.548;9.930;2023-11-19T07:10:52;19.92;;;7.72;;
10335;SDS011;5213;53.548;9.930;2023-11-19T07:13:18;19.50;;;7.88;;
10335;SDS011;5213;53.548;9.930;2023-11-19T07:15:44;23.30;;;8.48;;
10335;SDS011;5213;53.548;9.930;2023-11-19T07:18:10;23.92;;;7.32;;
10335;SDS011;5213;53.548;9.930;2023-11-19T07:20:36;15.43;;;6.75;;
10335;SDS011;5213;53.548;9.930;2023-11-19T07:23:03;16.10;;;6.57;;
10335;SDS011;5213;53.548;9.930;2023-11-19T07:25:29;25.35;;;6.97;;
10335;SDS011;5213;53.548;9.930;2023-11-19T07:27:54;19.38;;;6.38;;
10335;SDS011;5213;53.548;9.930;2023-11-19T07:30:21;18.05;;;5.88;;
10335;SDS011;5213;53.548;9.930;2023-11-19T07:32:46;16.35;;;5.22;;
10335;SDS011;5213;53.548;9.930;2023-11-19T07:35:12;15.60;;;5.35;;
10335;SDS011;5213;53.548;9.930;2023-11-19T07:37:37;21.27;;;5.55;;
10335;SDS011;5213;53.548;9.930;2023-11-19T07:40:04;14.73;;;5.25;;
10335;SDS011;5213;53.548;9.930;2023-11-19T07:42:30;16.27;;;5.72;;
10335;SDS011;5213;53.548;9.930;2023-11-19T07:44:56;20.63;;;5.70;;
10335;SDS011;5213;53.548;9.930;2023-11-19T07:47:22;17.98;;;5.63;;
10335;SDS011;5213;53.548;9.930;2023-11-19T07:49:48;19.80;;;6.05;;
10335;SDS011;5213;53.548;9.930;2023-11-19T07:52:15;21.48;;;5.80;;
10335;SDS011;5213;53.548;9.930;2023-11-19T07:54:41;19.25;;;5.57;;
10335;SDS011;5213;53.548;9.930;2023-11-19T07:57:06;19.90;;;5.80;;
10335;SDS011;5213;53.548;9.930;2023-11-19T07:59:32;17.77;;;4.88;;
10335;SDS011;5213;53.548;9.930;2023-11-19T08:01:57;17.10;;;5.10;;
10335;SDS011;5213;53.548;9.930;2023-11-19T08:04:23;26.40;;;6.35;;
10335;SDS011;5213;53.548;9.930;2023-11-19T08:06:49;20.27;;;7.28;;
10335;SDS011;5213;53.548;9.930;2023-11-19T08:09:14;28.88;;;8.40;;
10335;SDS011;5213;53.548;9.930;2023-11-19T08:11:40;22.88;;;7.50;;
10335;SDS011;5213;53.548;9.930;2023-11-19T08:14:06;24.52;;;5.47;;
10335;SDS011;5213;53.548;9.930;2023-11-19T08:16:32;23.23;;;5.70;;
10335;SDS011;5213;53.548;9.930;2023-11-19T08:18:57;21.27;;;5.70;;
10335;SDS011;5213;53.548;9.930;2023-11-19T08:21:23;20.35;;;5.53;;
10335;SDS011;5213;53.548;9.930;2023-11-19T08:23:49;20.05;;;4.95;;
10335;SDS011;5213;53.548;9.930;2023-11-19T08:26:15;21.40;;;5.40;;
10335;SDS011;5213;53.548;9.930;2023-11-19T08:28:41;22.67;;;4.93;;
10335;SDS011;5213;53.548;9.930;2023-11-19T08:31:06;20.40;;;4.43;;
10335;SDS011;5213;53.548;9.930;2023-11-19T08:33:32;23.60;;;5.38;;
10335;SDS011;5213;53.548;9.930;2023-11-19T08:35:58;17.58;;;4.65;;
10335;SDS011;5213;53.548;9.930;2023-11-19T08:38:24;21.25;;;4.53;;
10335;SDS011;5213;53.548;9.930;2023-11-19T08:40:50;20.33;;;5.13;;
10335;SDS011;5213;53.548;9.930;2023-11-19T08:43:17;18.40;;;4.30;;
10335;SDS011;5213;53.548;9.930;2023-11-19T08:45:42;21.05;;;4.65;;
10335;SDS011;5213;53.548;9.930;2023-11-19T08:48:08;24.45;;;5.40;;
10335;SDS011;5213;53.548;9.930;2023-11-19T08:50:34;25.98;;;5.30;;
10335;SDS011;5213;53.548;9.930;2023-11-19T08:53:00;16.98;;;4.43;;
10335;SDS011;5213;53.548;9.930;2023-11-19T08:55:26;18.13;;;4.82;;
10335;SDS011;5213;53.548;9.930;2023-11-19T08:57:52;20.17;;;4.47;;
10335;SDS011;5213;53.548;9.930;2023-11-19T09:00:17;22.10;;;5.13;;
10335;SDS011;5213;53.548;9.930;2023-11-19T09:02:43;20.85;;;4.95;;
10335;SDS011;5213;53.548;9.930;2023-11-19T09:05:09;23.17;;;5.22;;
10335;SDS011;5213;53.548;9.930;2023-11-19T09:07:34;18.30;;;4.95;;
10335;SDS011;5213;53.548;9.930;2023-11-19T09:10:00;19.98;;;4.43;;
10335;SDS011;5213;53.548;9.930;2023-11-19T09:12:26;22.17;;;5.38;;
10335;SDS011;5213;53.548;9.930;2023-11-19T09:14:52;26.45;;;5.45;;
10335;SDS011;5213;53.548;9.930;2023-11-19T09:17:18;18.88;;;4.80;;
10335;SDS011;5213;53.548;9.930;2023-11-19T09:19:43;25.35;;;5.43;;
10335;SDS011;5213;53.548;9.930;2023-11-19T09:22:09;23.05;;;5.18;;
10335;SDS011;5213;53.548;9.930;2023-11-19T09:24:35;21.25;;;5.07;;
10335;SDS011;5213;53.548;9.930;2023-11-19T09:27:01;22.42;;;4.60;;
10335;SDS011;5213;53.548;9.930;2023-11-19T09:29:26;24.08;;;4.93;;
10335;SDS011;5213;53.548;9.930;2023-11-19T09:31:52;17.77;;;4.63;;
10335;SDS011;5213;53.548;9.930;2023-11-19T09:34:17;25.95;;;5.18;;
10335;SDS011;5213;53.548;9.930;2023-11-19T09:36:43;18.88;;;4.35;;
10335;SDS011;5213;53.548;9.930;2023-11-19T09:39:13;23.08;;;4.90;;
10335;SDS011;5213;53.548;9.930;2023-11-19T09:41:43;18.10;;;4.85;;
10335;SDS011;5213;53.548;9.930;2023-11-19T09:44:10;25.88;;;5.57;;
10335;SDS011;5213;53.548;9.930;2023-11-19T09:46:37;17.92;;;4.93;;
10335;SDS011;5213;53.548;9.930;2023-11-19T09:49:06;20.25;;;4.57;;
10335;SDS011;5213;53.548;9.930;2023-11-19T09:51:35;21.88;;;5.32;;
10335;SDS011;5213;53.548;9.930;2023-11-19T09:54:01;27.63;;;5.00;;
10335;SDS011;5213;53.548;9.930;2023-11-19T09:56:28;26.17;;;5.40;;
10335;SDS011;5213;53.548;9.930;2023-11-19T09:58:58;22.35;;;5.35;;
10335;SDS011;5213;53.548;9.930;2023-11-19T10:01:24;25.60;;;5.90;;
10335;SDS011;5213;53.548;9.930;2023-11-19T10:03:50;21.60;;;5.15;;
10335;SDS011;5213;53.548;9.930;2023-11-19T10:06:21;25.42;;;5.38;;
10335;SDS011;5213;53.548;9.930;2023-11-19T10:08:48;22.33;;;5.53;;
10335;SDS011;5213;53.548;9.930;2023-11-19T10:11:13;21.58;;;4.90;;
10335;SDS011;5213;53.548;9.930;2023-11-19T10:13:40;19.02;;;4.88;;
10335;SDS011;5213;53.548;9.930;2023-11-19T10:16:17;29.70;;;5.55;;
10335;SDS011;5213;53.548;9.930;2023-11-19T10:18:46;23.48;;;5.40;;
10335;SDS011;5213;53.548;9.930;2023-11-19T10:21:13;22.90;;;4.90;;
10335;SDS011;5213;53.548;9.930;2023-11-19T10:23:51;21.63;;;5.03;;
10335;SDS011;5213;53.548;9.930;2023-11-19T10:26:19;30.83;;;5.90;;
10335;SDS011;5213;53.548;9.930;2023-11-19T10:28:46;23.13;;;5.47;;
10335;SDS011;5213;53.548;9.930;2023-11-19T10:31:16;21.30;;;4.97;;
10335;SDS011;5213;53.548;9.930;2023-11-19T10:33:43;16.95;;;4.20;;
10335;SDS011;5213;53.548;9.930;2023-11-19T10:36:10;26.55;;;5.20;;
10335;SDS011;5213;53.548;9.930;2023-11-19T10:38:37;24.75;;;5.25;;
10335;SDS011;5213;53.548;9.930;2023-11-19T10:41:04;22.27;;;4.57;;
10335;SDS011;5213;53.548;9.930;2023-11-19T10:43:30;25.00;;;4.80;;
10335;SDS011;5213;53.548;9.930;2023-11-19T10:46:12;24.88;;;4.10;;
10335;SDS011;5213;53.548;9.930;2023-11-19T10:48:39;23.42;;;5.00;;
10335;SDS011;5213;53.548;9.930;2023-11-19T10:51:05;23.42;;;4.63;;
10335;SDS011;5213;53.548;9.930;2023-11-19T10:53:35;23.13;;;5.05;;
10335;SDS011;5213;53.548;9.930;2023-11-19T10:56:04;24.95;;;5.25;;
10335;SDS011;5213;53.548;9.930;2023-11-19T10:58:35;22.95;;;4.60;;
10335;SDS011;5213;53.548;9.930;2023-11-19T11:01:03;24.63;;;4.75;;
10335;SDS011;5213;53.548;9.930;2023-11-19T11:03:39;22.67;;;4.63;;
10335;SDS011;5213;53.548;9.930;2023-11-19T11:06:05;24.08;;;5.18;;
10335;SDS011;5213;53.548;9.930;2023-11-19T11:08:31;20.10;;;5.28;;
10335;SDS011;5213;53.548;9.930;2023-11-19T11:11:00;19.90;;;4.38;;
10335;SDS011;5213;53.548;9.930;2023-11-19T11:13:29;20.75;;;5.25;;
10335;SDS011;5213;53.548;9.930;2023-11-19T11:15:56;22.85;;;4.60;;
10335;SDS011;5213;53.548;9.930;2023-11-19T11:18:23;18.67;;;4.35;;
10335;SDS011;5213;53.548;9.930;2023-11-19T11:20:54;17.90;;;4.82;;
10335;SDS011;5213;53.548;9.930;2023-11-19T11:39:41;22.05;;;4.55;;
10335;SDS011;5213;53.548;9.930;2023-11-19T11:45:06;19.42;;;4.32;;
10335;SDS011;5213;53.548;9.930;2023-11-19T11:50:15;24.63;;;5.07;;
10335;SDS011;5213;53.548;9.930;2023-11-19T11:53:17;17.50;;;4.53;;
10335;SDS011;5213;53.548;9.930;2023-11-19T11:58:17;22.55;;;4.30;;
10335;SDS011;5213;53.548;9.930;2023-11-19T12:00:43;20.48;;;4.40;;
10335;SDS011;5213;53.548;9.930;2023-11-19T12:03:10;17.27;;;4.50;;
10335;SDS011;5213;53.548;9.930;2023-11-19T12:05:43;20.85;;;4.45;;
10335;SDS011;5213;53.548;9.930;2023-11-19T12:08:10;21.23;;;4.05;;
10335;SDS011;5213;53.548;9.930;2023-11-19T12:13:15;19.65;;;4.47;;
10335;SDS011;5213;53.548;9.930;2023-11-19T12:18:23;21.92;;;4.07;;
10335;SDS011;5213;53.548;9.930;2023-11-19T12:20:49;17.25;;;4.47;;
10335;SDS011;5213;53.548;9.930;2023-11-19T12:23:15;17.88;;;4.90;;
10335;SDS011;5213;53.548;9.930;2023-11-19T12:25:41;18.95;;;4.65;;
10335;SDS011;5213;53.548;9.930;2023-11-19T12:28:11;20.38;;;5.05;;
10335;SDS011;5213;53.548;9.930;2023-11-19T12:30:38;26.25;;;4.90;;
10335;SDS011;5213;53.548;9.930;2023-11-19T12:33:07;16.25;;;4.32;;
10335;SDS011;5213;53.548;9.930;2023-11-19T12:35:40;18.63;;;4.47;;
10335;SDS011;5213;53.548;9.930;2023-11-19T12:38:06;18.65;;;4.22;;
10335;SDS011;5213;53.548;9.930;2023-11-19T12:40:32;20.52;;;4.07;;
10335;SDS011;5213;53.548;9.930;2023-11-19T12:42:58;19.95;;;4.68;;
10335;SDS011;5213;53.548;9.930;2023-11-19T12:45:27;21.35;;;4.60;;
10335;SDS011;5213;53.548;9.930;2023-11-19T12:48:07;18.85;;;4.82;;
10335;SDS011;5213;53.548;9.930;2023-11-19T12:50:56;22.90;;;5.03;;
10335;SDS011;5213;53.548;9.930;2023-11-19T12:53:24;23.75;;;5.38;;
10335;SDS011;5213;53.548;9.930;2023-11-19T12:55:51;18.88;;;4.32;;
10335;SDS011;5213;53.548;9.930;2023-11-19T12:58:30;19.88;;;5.13;;
10335;SDS011;5213;53.548;9.930;2023-11-19T13:01:01;15.50;;;4.70;;
10335;SDS011;5213;53.548;9.930;2023-11-19T13:03:33;21.58;;;5.35;;
10335;SDS011;5213;53.548;9.930;2023-11-19T13:06:04;17.75;;;4.38;;
10335;SDS011;5213;53.548;9.930;2023-11-19T13:08:40;25.52;;;4.65;;
10335;SDS011;5213;53.548;9.930;2023-11-19T13:11:06;18.48;;;4.43;;
10335;SDS011;5213;53.548;9.930;2023-11-19T13:16:21;18.95;;;4.05;;
10335;SDS011;5213;53.548;9.930;2023-11-19T13:18:47;19.40;;;4.18;;
10335;SDS011;5213;53.548;9.930;2023-11-19T13:21:12;19.80;;;4.40;;
10335;SDS011;5213;53.548;9.930;2023-11-19T13:23:38;19.67;;;5.10;;
10335;SDS011;5213;53.548;9.930;2023-11-19T13:26:04;19.58;;;4.57;;
10335;SDS011;5213;53.548;9.930;2023-11-19T13:28:29;22.45;;;5.03;;
10335;SDS011;5213;53.548;9.930;2023-11-19T13:30:56;19.63;;;4.63;;
10335;SDS011;5213;53.548;9.930;2023-11-19T13:33:21;23.90;;;4.90;;
10335;SDS011;5213;53.548;9.930;2023-11-19T13:35:47;19.08;;;5.15;;
10335;SDS011;5213;53.548;9.930;2023-11-19T13:38:12;21.90;;;4.35;;
10335;SDS011;5213;53.548;9.930;2023-11-19T13:40:38;18.40;;;4.35;;
10335;SDS011;5213;53.548;9.930;2023-11-19T13:43:04;20.00;;;4.93;;
10335;SDS011;5213;53.548;9.930;2023-11-19T13:45:30;17.98;;;4.68;;
10335;SDS011;5213;53.548;9.930;2023-11-19T13:47:57;21.05;;;4.15;;
10335;SDS011;5213;53.548;9.930;2023-11-19T13:50:22;20.48;;;4.93;;
10335;SDS011;5213;53.548;9.930;2023-11-19T13:52:48;18.67;;;4.40;;
10335;SDS011;5213;53.548;9.930;2023-11-19T13:55:14;21.15;;;4.78;;
10335;SDS011;5213;53.548;9.930;2023-11-19T13:57:41;19.02;;;4.70;;
10335;SDS011;5213;53.548;9.930;2023-11-19T14:00:08;19.02;;;4.15;;
10335;SDS011;5213;53.548;9.930;2023-11-19T14:02:38;15.50;;;4.03;;
10335;SDS011;5213;53.548;9.930;2023-11-19T14:05:05;15.70;;;4.43;;
10335;SDS011;5213;53.548;9.930;2023-11-19T14:07:31;21.50;;;4.78;;
10335;SDS011;5213;53.548;9.930;2023-11-19T14:09:57;20.58;;;4.68;;
10335;SDS011;5213;53.548;9.930;2023-11-19T14:12:23;18.25;;;4.70;;
10335;SDS011;5213;53.548;9.930;2023-11-19T14:14:48;18.77;;;4.82;;
10335;SDS011;5213;53.548;9.930;2023-11-19T14:17:14;17.58;;;4.10;;
10335;SDS011;5213;53.548;9.930;2023-11-19T14:19:41;16.23;;;4.03;;
10335;SDS011;5213;53.548;9.930;2023-11-19T14:22:07;20.58;;;4.35;;
10335;SDS011;5213;53.548;9.930;2023-11-19T14:24:33;18.75;;;4.55;;
10335;SDS011;5213;53.548;9.930;2023-11-19T14:26:59;15.82;;;3.67;;
10335;SDS011;5213;53.548;9.930;2023-11-19T14:29:25;17.45;;;4.45;;
10335;SDS011;5213;53.548;9.930;2023-11-19T14:31:52;16.77;;;4.40;;
10335;SDS011;5213;53.548;9.930;2023-11-19T14:34:21;17.52;;;4.82;;
10335;SDS011;5213;53.548;9.930;2023-11-19T14:36:47;18.23;;;4.70;;
10335;SDS011;5213;53.548;9.930;2023-11-19T14:39:13;15.75;;;4.10;;
10335;SDS011;5213;53.548;9.930;2023-11-19T14:41:38;18.90;;;4.75;;
10335;SDS011;5213;53.548;9.930;2023-11-19T14:44:04;19.58;;;4.45;;
10335;SDS011;5213;53.548;9.930;2023-11-19T14:46:30;22.55;;;4.45;;
10335;SDS011;5213;53.548;9.930;2023-11-19T14:48:56;18.20;;;3.95;;
10335;SDS011;5213;53.548;9.930;2023-11-19T14:51:22;14.07;;;3.78;;
10335;SDS011;5213;53.548;9.930;2023-11-19T14:53:47;15.98;;;4.00;;
10335;SDS011;5213;53.548;9.930;2023-11-19T14:56:13;16.77;;;3.80;;
10335;SDS011;5213;53.548;9.930;2023-11-19T14:58:39;16.38;;;4.18;;
10335;SDS011;5213;53.548;9.930;2023-11-19T15:01:05;17.02;;;4.25;;
10335;SDS011;5213;53.548;9.930;2023-11-19T15:03:32;16.55;;;4.03;;
10335;SDS011;5213;53.548;9.930;2023-11-19T15:05:58;15.25;;;3.83;;
10335;SDS011;5213;53.548;9.930;2023-11-19T15:08:24;14.32;;;4.45;;
10335;SDS011;5213;53.548;9.930;2023-11-19T15:10:50;19.35;;;4.00;;
10335;SDS011;5213;53.548;9.930;2023-11-19T15:13:15;17.65;;;4.10;;
10335;SDS011;5213;53.548;9.930;2023-11-19T15:15:41;19.88;;;4.40;;
10335;SDS011;5213;53.548;9.930;2023-11-19T15:18:07;15.68;;;4.38;;
10335;SDS011;5213;53.548;9.930;2023-11-19T15:20:34;20.05;;;4.65;;